Time,TemperatureF,DewpointF,PressureIn,WindDirection,WindDirectionDegrees,WindSpeedMPH,WindSpeedGustMPH,Humidity,HourlyPrecipIn,Conditions,Clouds,dailyrainin,SoftwareType,DateUTC
2013-04-29 00:09:00,57.6,57.0,29.94,SSE,162,0.0,-999.0,97,-99.99,,,0.00,weatherlink.com 1.10,2013-04-29 05:09:00,
2013-04-29 00:24:00,57.7,57.0,29.94,SSE,162,0.0,-999.0,97,-99.99,,,0.00,weatherlink.com 1.10,2013-04-29 05:24:00,
2013-04-29 00:39:00,57.9,57.0,29.94,SSE,162,0.0,-999.0,97,-99.99,,,0.00,weatherlink.com 1.10,2013-04-29 05:39:00,
2013-04-29 00:54:00,58.1,57.0,29.94,SSE,162,0.0,-999.0,97,-99.99,,,0.00,weatherlink.com 1.10,2013-04-29 05:54:00,
2013-04-29 01:09:00,58.2,57.0,29.94,SSE,162,0.0,-999.0,97,-99.99,,,0.00,weatherlink.com 1.10,2013-04-29 06:09:00,
2013-04-29 01:24:00,58.0,57.0,29.94,SSE,162,0.0,-999.0,97,-99.99,,,0.00,weatherlink.com 1.10,2013-04-29 06:24:00,
2013-04-29 01:39:00,58.0,57.0,29.94,SSE,162,0.0,-999.0,97,-99.99,,,0.00,weatherlink.com 1.10,2013-04-29 06:39:00,
2013-04-29 01:54:00,58.1,57.0,29.94,SSE,162,0.0,-999.0,97,-99.99,,,0.00,weatherlink.com 1.10,2013-04-29 06:54:00,
2013-04-29 02:09:00,58.0,57.0,29.94,SSE,162,0.0,-999.0,97,-99.99,,,0.00,weatherlink.com 1.10,2013-04-29 07:09:00,
2013-04-29 02:24:00,58.1,57.0,29.94,SSE,162,0.0,-999.0,97,-99.99,,,0.00,weatherlink.com 1.10,2013-04-29 07:24:00,
2013-04-29 02:39:00,58.2,57.0,29.94,SSE,162,0.0,-999.0,97,-99.99,,,0.00,weatherlink.com 1.10,2013-04-29 07:39:00,
2013-04-29 02:54:00,58.2,57.0,29.94,SSE,162,0.0,-999.0,97,-99.99,,,0.00,weatherlink.com 1.10,2013-04-29 07:54:00,
2013-04-29 03:09:00,58.0,57.0,29.94,SSE,162,0.0,-999.0,96,-99.99,,,0.00,weatherlink.com 1.10,2013-04-29 08:09:00,
2013-04-29 03:24:00,57.7,57.0,29.93,SSE,162,0.0,-999.0,96,-99.99,,,0.00,weatherlink.com 1.10,2013-04-29 08:24:00,
2013-04-29 03:39:00,57.4,56.0,29.93,SSE,162,0.0,-999.0,96,-99.99,,,0.00,weatherlink.com 1.10,2013-04-29 08:39:00,
2013-04-29 03:54:00,57.3,57.0,29.93,SSE,162,0.0,-999.0,97,-99.99,,,0.00,weatherlink.com 1.10,2013-04-29 08:54:00,
2013-04-29 04:09:00,57.7,57.0,29.93,SSE,162,0.0,-999.0,97,-99.99,,,0.00,weatherlink.com 1.10,2013-04-29 09:09:00,
2013-04-29 04:24:00,57.9,57.0,29.93,SSE,162,0.0,-999.0,97,-99.99,,,0.00,weatherlink.com 1.10,2013-04-29 09:24:00,
2013-04-29 04:39:00,57.6,57.0,29.93,SSE,162,0.0,-999.0,97,-99.99,,,0.00,weatherlink.com 1.10,2013-04-29 09:39:00,
2013-04-29 04:54:00,57.5,57.0,29.93,SSE,162,0.0,-999.0,97,-99.99,,,0.00,weatherlink.com 1.10,2013-04-29 09:54:00,
2013-04-29 05:09:00,57.5,57.0,29.93,SSE,162,0.0,-999.0,97,-99.99,,,0.00,weatherlink.com 1.10,2013-04-29 10:09:00,
2013-04-29 05:24:00,57.5,57.0,29.94,SSE,162,0.0,-999.0,97,-99.99,,,0.00,weatherlink.com 1.10,2013-04-29 10:24:00,
2013-04-29 05:39:00,57.7,57.0,29.94,SSE,162,0.0,-999.0,97,-99.99,,,0.00,weatherlink.com 1.10,2013-04-29 10:39:00,
2013-04-29 05:54:00,57.7,57.0,29.94,SSE,162,0.0,-999.0,97,-99.99,,,0.00,weatherlink.com 1.10,2013-04-29 10:54:00,
2013-04-29 06:09:00,57.7,57.0,29.95,SSE,162,0.0,-999.0,97,-99.99,,,0.00,weatherlink.com 1.10,2013-04-29 11:09:00,
2013-04-29 06:24:00,57.7,57.0,29.96,SSE,162,0.0,-999.0,97,-99.99,,,0.00,weatherlink.com 1.10,2013-04-29 11:24:00,
2013-04-29 06:39:00,57.9,57.0,29.96,SSE,162,0.0,-999.0,97,-99.99,,,0.00,weatherlink.com 1.10,2013-04-29 11:39:00,
2013-04-29 06:54:00,57.9,57.0,29.97,SSE,162,2.0,-999.0,96,-99.99,,,0.00,weatherlink.com 1.10,2013-04-29 11:54:00,
2013-04-29 07:09:00,58.2,57.0,29.98,SSE,162,0.0,-999.0,96,-99.99,,,0.00,weatherlink.com 1.10,2013-04-29 12:09:00,
2013-04-29 07:24:00,59.2,58.0,29.98,SSE,162,0.0,-999.0,96,-99.99,,,0.00,weatherlink.com 1.10,2013-04-29 12:24:00,
2013-04-29 07:39:00,59.5,58.0,29.98,SSE,162,0.0,-999.0,94,-99.99,,,0.00,weatherlink.com 1.10,2013-04-29 12:39:00,
2013-04-29 07:54:00,59.6,58.0,29.98,SW,219,4.0,-999.0,94,-99.99,,,0.00,weatherlink.com 1.10,2013-04-29 12:54:00,
2013-04-29 08:09:00,59.7,57.0,29.98,SW,217,0.0,-999.0,92,-99.99,,,0.00,weatherlink.com 1.10,2013-04-29 13:09:00,
2013-04-29 08:24:00,60.3,58.0,29.98,WNW,290,0.0,-999.0,92,-99.99,,,0.00,weatherlink.com 1.10,2013-04-29 13:24:00,
2013-04-29 08:39:00,60.7,58.0,29.98,WNW,301,0.0,-999.0,91,-99.99,,,0.00,weatherlink.com 1.10,2013-04-29 13:39:00,
2013-04-29 08:54:00,61.3,58.0,29.98,NW,319,0.0,-999.0,89,-99.99,,,0.00,weatherlink.com 1.10,2013-04-29 13:54:00,
2013-04-29 09:09:00,62.4,58.0,29.98,NW,315,1.0,-999.0,85,-99.99,,,0.00,weatherlink.com 1.10,2013-04-29 14:09:00,
2013-04-29 09:24:00,62.3,58.0,29.98,NW,315,0.0,-999.0,85,-99.99,,,0.00,weatherlink.com 1.10,2013-04-29 14:24:00,
2013-04-29 09:39:00,62.5,58.0,29.99,NW,315,0.0,-999.0,84,-99.99,,,0.00,weatherlink.com 1.10,2013-04-29 14:39:00,
2013-04-29 09:54:00,64.5,58.0,29.99,NW,315,0.0,-999.0,78,-99.99,,,0.00,weatherlink.com 1.10,2013-04-29 14:54:00,
2013-04-29 10:09:00,65.1,58.0,29.99,SSW,207,3.0,-999.0,77,-99.99,,,0.00,weatherlink.com 1.10,2013-04-29 15:09:00,
2013-04-29 10:24:00,66.3,57.0,29.99,WSW,242,1.0,-999.0,72,-99.99,,,0.00,weatherlink.com 1.10,2013-04-29 15:24:00,
2013-04-29 10:39:00,66.6,57.0,29.99,West,269,2.0,-999.0,71,-99.99,,,0.00,weatherlink.com 1.10,2013-04-29 15:39:00,
2013-04-29 10:54:00,67.9,56.0,29.99,West,268,0.0,-999.0,67,-99.99,,,0.00,weatherlink.com 1.10,2013-04-29 15:54:00,
2013-04-29 11:09:00,68.5,56.0,29.99,SSW,204,0.0,-999.0,64,-99.99,,,0.00,weatherlink.com 1.10,2013-04-29 16:09:00,
2013-04-29 11:24:00,68.3,56.0,29.99,WSW,242,0.0,-999.0,65,-99.99,,,0.00,weatherlink.com 1.10,2013-04-29 16:24:00,
2013-04-29 11:39:00,68.6,56.0,29.98,SSW,196,0.0,-999.0,64,-99.99,,,0.00,weatherlink.com 1.10,2013-04-29 16:39:00,
2013-04-29 11:54:00,69.4,56.0,29.98,SW,234,0.0,-999.0,62,-99.99,,,0.00,weatherlink.com 1.10,2013-04-29 16:54:00,
2013-04-29 12:09:00,70.0,55.0,29.97,West,273,0.0,-999.0,60,-99.99,,,0.00,weatherlink.com 1.10,2013-04-29 17:09:00,
2013-04-29 12:24:00,71.0,56.0,29.96,West,275,0.0,-999.0,60,-99.99,,,0.00,weatherlink.com 1.10,2013-04-29 17:24:00,
2013-04-29 12:39:00,70.8,55.0,29.96,West,259,3.0,-999.0,58,-99.99,,,0.00,weatherlink.com 1.10,2013-04-29 17:39:00,
2013-04-29 12:54:00,70.6,57.0,29.96,NNW,345,7.0,-999.0,63,-99.99,,,0.00,weatherlink.com 1.10,2013-04-29 17:54:00,
2013-04-29 13:09:00,69.2,57.0,29.95,NNW,340,7.0,-999.0,65,-99.99,,,0.00,weatherlink.com 1.10,2013-04-29 18:09:00,
2013-04-29 13:24:00,69.7,57.0,29.95,North,11,0.0,-999.0,65,-99.99,,,0.00,weatherlink.com 1.10,2013-04-29 18:24:00,
2013-04-29 13:39:00,68.8,57.0,29.95,NNE,14,6.0,-999.0,66,-99.99,,,0.00,weatherlink.com 1.10,2013-04-29 18:39:00,
2013-04-29 13:54:00,69.9,58.0,29.94,NW,317,8.0,-999.0,65,-99.99,,,0.00,weatherlink.com 1.10,2013-04-29 18:54:00,
2013-04-29 14:09:00,69.6,56.0,29.94,NNW,338,6.0,-999.0,63,-99.99,,,0.00,weatherlink.com 1.10,2013-04-29 19:09:00,
2013-04-29 14:24:00,70.4,57.0,29.93,NW,311,0.0,-999.0,63,-99.99,,,0.00,weatherlink.com 1.10,2013-04-29 19:24:00,
2013-04-29 14:39:00,70.4,58.0,29.93,NE,34,0.0,-999.0,64,-99.99,,,0.00,weatherlink.com 1.10,2013-04-29 19:39:00,
2013-04-29 14:54:00,70.7,57.0,29.93,NNW,345,6.0,-999.0,63,-99.99,,,0.00,weatherlink.com 1.10,2013-04-29 19:54:00,
2013-04-29 15:09:00,70.5,58.0,29.92,North,360,3.0,-999.0,64,-99.99,,,0.00,weatherlink.com 1.10,2013-04-29 20:09:00,
2013-04-29 15:24:00,70.9,57.0,29.92,North,355,0.0,-999.0,62,-99.99,,,0.00,weatherlink.com 1.10,2013-04-29 20:24:00,
2013-04-29 15:39:00,71.2,57.0,29.92,NNW,347,3.0,-999.0,62,-99.99,,,0.00,weatherlink.com 1.10,2013-04-29 20:39:00,
2013-04-29 15:54:00,71.2,56.0,29.91,NNW,346,0.0,-999.0,60,-99.99,,,0.00,weatherlink.com 1.10,2013-04-29 20:54:00,
2013-04-29 16:09:00,72.2,56.0,29.90,NNW,329,7.0,-999.0,58,-99.99,,,0.00,weatherlink.com 1.10,2013-04-29 21:09:00,
2013-04-29 16:24:00,71.5,56.0,29.90,North,360,0.0,-999.0,59,-99.99,,,0.00,weatherlink.com 1.10,2013-04-29 21:24:00,
2013-04-29 16:39:00,72.0,56.0,29.90,NNW,340,4.0,-999.0,58,-99.99,,,0.00,weatherlink.com 1.10,2013-04-29 21:39:00,
2013-04-29 16:54:00,73.5,56.0,29.89,NNW,341,0.0,-999.0,55,-99.99,,,0.00,weatherlink.com 1.10,2013-04-29 21:54:00,
2013-04-29 17:09:00,72.7,56.0,29.89,NNW,345,0.0,-999.0,56,-99.99,,,0.00,weatherlink.com 1.10,2013-04-29 22:09:00,
2013-04-29 17:24:00,73.0,56.0,29.89,North,350,4.0,-999.0,56,-99.99,,,0.00,weatherlink.com 1.10,2013-04-29 22:24:00,
2013-04-29 17:39:00,72.4,56.0,29.89,NNW,348,0.0,-999.0,57,-99.99,,,0.00,weatherlink.com 1.10,2013-04-29 22:39:00,
2013-04-29 17:54:00,72.6,56.0,29.88,NNW,331,4.0,-999.0,56,-99.99,,,0.00,weatherlink.com 1.10,2013-04-29 22:54:00,
2013-04-29 18:09:00,72.1,56.0,29.88,NNW,346,0.0,-999.0,58,-99.99,,,0.00,weatherlink.com 1.10,2013-04-29 23:09:00,
2013-04-29 18:24:00,71.7,58.0,29.88,NNW,346,0.0,-999.0,63,-99.99,,,0.00,weatherlink.com 1.10,2013-04-29 23:24:00,
2013-04-29 18:39:00,71.3,59.0,29.89,NNW,346,0.0,-999.0,65,-99.99,,,0.00,weatherlink.com 1.10,2013-04-29 23:39:00,
2013-04-29 19:09:00,68.3,59.0,29.89,NNW,346,0.0,-999.0,72,-99.99,,,0.00,weatherlink.com 1.10,2013-04-30 00:09:00,
2013-04-29 19:24:00,67.0,57.0,29.89,NNW,346,0.0,-999.0,70,-99.99,,,0.00,weatherlink.com 1.10,2013-04-30 00:24:00,
2013-04-29 19:39:00,65.7,56.0,29.90,NNW,346,0.0,-999.0,72,-99.99,,,0.00,weatherlink.com 1.10,2013-04-30 00:39:00,
2013-04-29 19:54:00,64.7,58.0,29.90,NNW,346,0.0,-999.0,78,-99.99,,,0.00,weatherlink.com 1.10,2013-04-30 00:54:00,
2013-04-29 20:09:00,63.9,58.0,29.91,NNW,346,0.0,-999.0,80,-99.99,,,0.00,weatherlink.com 1.10,2013-04-30 01:09:00,
2013-04-29 20:24:00,63.1,58.0,29.91,NNW,346,0.0,-999.0,83,-99.99,,,0.00,weatherlink.com 1.10,2013-04-30 01:24:00,
2013-04-29 20:39:00,62.5,58.0,29.92,NNW,346,0.0,-999.0,85,-99.99,,,0.00,weatherlink.com 1.10,2013-04-30 01:39:00,
2013-04-29 20:54:00,62.1,58.0,29.92,NNW,346,0.0,-999.0,86,-99.99,,,0.00,weatherlink.com 1.10,2013-04-30 01:54:00,
2013-04-29 21:09:00,61.6,58.0,29.93,NNW,346,0.0,-999.0,87,-99.99,,,0.00,weatherlink.com 1.10,2013-04-30 02:09:00,
2013-04-29 21:24:00,61.2,58.0,29.93,NNW,346,0.0,-999.0,88,-99.99,,,0.00,weatherlink.com 1.10,2013-04-30 02:24:00,
2013-04-29 21:39:00,60.9,58.0,29.93,NNW,346,0.0,-999.0,89,-99.99,,,0.00,weatherlink.com 1.10,2013-04-30 02:39:00,
2013-04-29 21:54:00,60.5,58.0,29.93,NNW,346,0.0,-999.0,90,-99.99,,,0.00,weatherlink.com 1.10,2013-04-30 02:54:00,
2013-04-29 22:09:00,59.9,57.0,29.93,WSW,248,0.0,-999.0,91,-99.99,,,0.00,weatherlink.com 1.10,2013-04-30 03:09:00,
2013-04-29 22:24:00,59.3,57.0,29.93,WSW,248,0.0,-999.0,91,-99.99,,,0.00,weatherlink.com 1.10,2013-04-30 03:24:00,
2013-04-29 22:39:00,58.8,57.0,29.92,WSW,248,0.0,-999.0,92,-99.99,,,0.00,weatherlink.com 1.10,2013-04-30 03:39:00,
2013-04-29 22:54:00,58.6,56.0,29.92,WSW,248,0.0,-999.0,92,-99.99,,,0.00,weatherlink.com 1.10,2013-04-30 03:54:00,
2013-04-29 23:09:00,57.9,56.0,29.92,WSW,248,0.0,-999.0,93,-99.99,,,0.00,weatherlink.com 1.10,2013-04-30 04:09:00,
2013-04-29 23:24:00,57.5,56.0,29.92,WSW,248,0.0,-999.0,93,-99.99,,,0.00,weatherlink.com 1.10,2013-04-30 04:24:00,
2013-04-29 23:39:00,57.3,56.0,29.92,WSW,248,0.0,-999.0,94,-99.99,,,0.00,weatherlink.com 1.10,2013-04-30 04:39:00,
2013-04-29 23:54:00,56.9,55.0,29.92,WSW,248,0.0,-999.0,94,-99.99,,,0.00,weatherlink.com 1.10,2013-04-30 04:54:00,